This is the latest recevied weather packets stored in our database for station/object VA7NEZ. If no packets are shown the sender has not sent any weather packets the latest 10 day(s).
| Time | Temp. | Humidity | Pressure | Rain* | Wind** | Luminosity | Snow |
|---|---|---|---|---|---|---|---|
| 1777583772 | 18.89° C | 39% | 1019.3 hPa | 0 mm | - | - | - |
| 1777583206 | 18.89° C | 38% | 1019.5 hPa | 0 mm | - | - | - |
| 1777582677 | 0° C | 100% | 1019.6 hPa | 0 mm | - | - | - |
| 1777582129 | 18.89° C | 37% | 1019.8 hPa | 0 mm | - | - | - |
| 1777581566 | 18.33° C | 37% | 1019.9 hPa | 0 mm | - | - | - |
| 1777580971 | 18.33° C | 38% | 1020.1 hPa | 0 mm | - | - | - |
| 1777580476 | 17.78° C | 38% | 1020.2 hPa | 0 mm | - | - | - |
| 1777579412 | 18.89° C | 37% | 1020.4 hPa | 0 mm | - | - | - |
| 1777578831 | 0° C | 100% | 1020.6 hPa | 0 mm | - | - | - |
| 1777578346 | 17.22° C | 39% | 1020.8 hPa | 0 mm | - | - | - |
| 1777577861 | 0° C | 100% | 1021.1 hPa | 0 mm | - | - | - |
| 1777577266 | 16.67° C | 43% | 1021.3 hPa | 0 mm | - | - | - |
| 1777576676 | 16.67° C | 42% | 1021.5 hPa | 0 mm | - | - | - |
| 1777576136 | 16.11° C | 46% | 1021.6 hPa | 0 mm | - | - | - |
| 1777575566 | 16.11° C | 44% | 1021.9 hPa | 0 mm | - | - | - |
| 1777575056 | 16.11° C | 43% | 1022.1 hPa | 0 mm | - | - | - |
| 1777574486 | 15.56° C | 43% | 1022.1 hPa | 0 mm | - | - | - |
| 1777573971 | 15.56° C | 44% | 1022.2 hPa | 0 mm | - | - | - |
| 1777572816 | 15.56° C | 45% | 1022.4 hPa | 0 mm | - | - | - |
| 1777571635 | 14.44° C | 50% | 1022.9 hPa | 0 mm | - | - | - |
| 1777571111 | 14.44° C | 50% | 1022.9 hPa | 0 mm | - | - | - |
| 1777570021 | 13.89° C | 53% | 1023.2 hPa | 0 mm | - | - | - |
| 1777568851 | 12.78° C | 54% | 1023.5 hPa | 0 mm | - | - | - |
| 1777568316 | 12.78° C | 55% | 1023.5 hPa | 0 mm | - | - | - |
| 1777567801 | 12.22° C | 56% | 1023.7 hPa | 0 mm | - | - | - |
* Rain latest hour (hover to see other rain measurements)
** Current wind speed in m/s (hover to see current wind gust speed)